sensor_id;sensor_type;location;lat;lon;timestamp;temperature;humidity
38398;DHT22;24179;52.094;4.408;2023-08-20T00:02:37;18.10;99.90
38398;DHT22;24179;52.094;4.408;2023-08-20T00:05:38;18.10;99.90
38398;DHT22;24179;52.094;4.408;2023-08-20T00:08:39;18.00;99.90
38398;DHT22;24179;52.094;4.408;2023-08-20T00:11:39;18.00;99.90
38398;DHT22;24179;52.094;4.408;2023-08-20T00:14:53;18.00;99.90
38398;DHT22;24179;52.094;4.408;2023-08-20T00:17:54;17.90;99.90
38398;DHT22;24179;52.094;4.408;2023-08-20T00:20:58;17.80;99.90
38398;DHT22;24179;52.094;4.408;2023-08-20T00:23:58;17.70;99.90
38398;DHT22;24179;52.094;4.408;2023-08-20T00:26:59;17.70;99.90
38398;DHT22;24179;52.094;4.408;2023-08-20T00:30:00;17.80;99.90
38398;DHT22;24179;52.094;4.408;2023-08-20T00:33:00;17.80;99.90
38398;DHT22;24179;52.094;4.408;2023-08-20T00:36:01;17.80;99.90
38398;DHT22;24179;52.094;4.408;2023-08-20T00:39:04;17.90;99.90
38398;DHT22;24179;52.094;4.408;2023-08-20T00:42:04;17.90;99.90
38398;DHT22;24179;52.094;4.408;2023-08-20T00:45:05;17.80;99.90
38398;DHT22;24179;52.094;4.408;2023-08-20T00:48:06;17.70;99.90
38398;DHT22;24179;52.094;4.408;2023-08-20T00:51:06;17.60;99.90
38398;DHT22;24179;52.094;4.408;2023-08-20T00:54:07;17.50;99.90
38398;DHT22;24179;52.094;4.408;2023-08-20T00:57:08;17.50;99.90
38398;DHT22;24179;52.094;4.408;2023-08-20T01:00:09;17.50;99.90
38398;DHT22;24179;52.094;4.408;2023-08-20T01:03:10;17.60;99.90
38398;DHT22;24179;52.094;4.408;2023-08-20T01:06:23;17.60;99.90
38398;DHT22;24179;52.094;4.408;2023-08-20T01:12:34;17.60;99.90
38398;DHT22;24179;52.094;4.408;2023-08-20T01:15:34;17.60;99.90
38398;DHT22;24179;52.094;4.408;2023-08-20T01:18:35;17.60;99.90
38398;DHT22;24179;52.094;4.408;2023-08-20T01:21:39;17.50;99.90
38398;DHT22;24179;52.094;4.408;2023-08-20T01:27:57;17.30;99.90
38398;DHT22;24179;52.094;4.408;2023-08-20T01:31:00;17.10;99.90
38398;DHT22;24179;52.094;4.408;2023-08-20T01:34:06;17.10;99.90
38398;DHT22;24179;52.094;4.408;2023-08-20T01:37:06;17.00;99.90
38398;DHT22;24179;52.094;4.408;2023-08-20T01:40:07;17.00;99.90
38398;DHT22;24179;52.094;4.408;2023-08-20T01:43:11;17.00;99.90
38398;DHT22;24179;52.094;4.408;2023-08-20T01:46:11;16.90;99.90
38398;DHT22;24179;52.094;4.408;2023-08-20T01:49:15;16.80;99.90
38398;DHT22;24179;52.094;4.408;2023-08-20T01:52:15;16.80;99.90
38398;DHT22;24179;52.094;4.408;2023-08-20T01:55:16;16.70;99.90
38398;DHT22;24179;52.094;4.408;2023-08-20T01:58:16;16.60;99.90
38398;DHT22;24179;52.094;4.408;2023-08-20T02:01:17;16.50;99.90
38398;DHT22;24179;52.094;4.408;2023-08-20T02:04:17;16.50;99.90
38398;DHT22;24179;52.094;4.408;2023-08-20T02:07:17;16.50;99.90
38398;DHT22;24179;52.094;4.408;2023-08-20T02:10:18;16.50;99.90
38398;DHT22;24179;52.094;4.408;2023-08-20T02:13:19;16.50;99.90
38398;DHT22;24179;52.094;4.408;2023-08-20T02:16:22;16.50;99.90
38398;DHT22;24179;52.094;4.408;2023-08-20T02:19:23;16.40;99.90
38398;DHT22;24179;52.094;4.408;2023-08-20T02:22:24;16.30;99.90
38398;DHT22;24179;52.094;4.408;2023-08-20T02:25:25;16.30;99.90
38398;DHT22;24179;52.094;4.408;2023-08-20T02:28:25;16.30;99.90
38398;DHT22;24179;52.094;4.408;2023-08-20T02:31:26;16.30;99.90
38398;DHT22;24179;52.094;4.408;2023-08-20T02:34:26;16.20;99.90
38398;DHT22;24179;52.094;4.408;2023-08-20T02:37:27;16.20;99.90
38398;DHT22;24179;52.094;4.408;2023-08-20T02:40:27;16.20;99.90
38398;DHT22;24179;52.094;4.408;2023-08-20T02:43:28;16.10;99.90
38398;DHT22;24179;52.094;4.408;2023-08-20T02:46:29;16.10;99.90
38398;DHT22;24179;52.094;4.408;2023-08-20T02:49:29;16.10;99.90
38398;DHT22;24179;52.094;4.408;2023-08-20T02:52:30;16.20;99.90
38398;DHT22;24179;52.094;4.408;2023-08-20T02:55:32;16.30;99.90
38398;DHT22;24179;52.094;4.408;2023-08-20T02:58:33;16.50;99.90
38398;DHT22;24179;52.094;4.408;2023-08-20T03:01:33;16.60;99.90
38398;DHT22;24179;52.094;4.408;2023-08-20T03:04:36;16.70;99.90
38398;DHT22;24179;52.094;4.408;2023-08-20T03:07:37;16.70;99.90
38398;DHT22;24179;52.094;4.408;2023-08-20T03:10:38;16.70;99.90
38398;DHT22;24179;52.094;4.408;2023-08-20T03:13:38;16.90;99.90
38398;DHT22;24179;52.094;4.408;2023-08-20T03:16:38;16.70;99.90
38398;DHT22;24179;52.094;4.408;2023-08-20T03:19:46;16.60;99.90
38398;DHT22;24179;52.094;4.408;2023-08-20T03:22:53;16.40;99.90
38398;DHT22;24179;52.094;4.408;2023-08-20T03:25:56;16.30;99.90
38398;DHT22;24179;52.094;4.408;2023-08-20T03:28:57;16.20;99.90
38398;DHT22;24179;52.094;4.408;2023-08-20T03:31:59;16.10;99.90
38398;DHT22;24179;52.094;4.408;2023-08-20T03:35:00;16.00;99.90
38398;DHT22;24179;52.094;4.408;2023-08-20T03:38:01;15.90;99.90
38398;DHT22;24179;52.094;4.408;2023-08-20T03:41:02;15.90;99.90
38398;DHT22;24179;52.094;4.408;2023-08-20T03:44:03;15.80;99.90
38398;DHT22;24179;52.094;4.408;2023-08-20T03:47:04;15.80;99.90
38398;DHT22;24179;52.094;4.408;2023-08-20T03:50:05;15.70;99.90
38398;DHT22;24179;52.094;4.408;2023-08-20T03:53:08;15.70;99.90
38398;DHT22;24179;52.094;4.408;2023-08-20T03:56:10;15.60;99.90
38398;DHT22;24179;52.094;4.408;2023-08-20T03:59:10;15.60;99.90
38398;DHT22;24179;52.094;4.408;2023-08-20T04:02:11;15.70;99.90
38398;DHT22;24179;52.094;4.408;2023-08-20T04:05:12;15.60;99.90
38398;DHT22;24179;52.094;4.408;2023-08-20T04:08:12;15.60;99.90
38398;DHT22;24179;52.094;4.408;2023-08-20T04:11:13;15.80;99.90
38398;DHT22;24179;52.094;4.408;2023-08-20T04:14:13;15.80;99.90
38398;DHT22;24179;52.094;4.408;2023-08-20T04:17:13;15.80;99.90
38398;DHT22;24179;52.094;4.408;2023-08-20T04:20:14;15.80;99.90
38398;DHT22;24179;52.094;4.408;2023-08-20T04:23:15;15.70;99.90
38398;DHT22;24179;52.094;4.408;2023-08-20T04:26:20;15.70;99.90
38398;DHT22;24179;52.094;4.408;2023-08-20T04:29:22;15.60;99.90
38398;DHT22;24179;52.094;4.408;2023-08-20T04:32:22;15.60;99.90
38398;DHT22;24179;52.094;4.408;2023-08-20T04:35:23;15.60;99.90
38398;DHT22;24179;52.094;4.408;2023-08-20T04:38:23;15.60;99.90
38398;DHT22;24179;52.094;4.408;2023-08-20T04:41:24;15.50;99.90
38398;DHT22;24179;52.094;4.408;2023-08-20T04:44:24;15.50;99.90
38398;DHT22;24179;52.094;4.408;2023-08-20T04:47:25;15.40;99.90
38398;DHT22;24179;52.094;4.408;2023-08-20T04:50:25;15.40;99.90
38398;DHT22;24179;52.094;4.408;2023-08-20T04:53:26;15.40;99.90
38398;DHT22;24179;52.094;4.408;2023-08-20T04:56:26;15.40;99.90
38398;DHT22;24179;52.094;4.408;2023-08-20T04:59:27;15.50;99.90
38398;DHT22;24179;52.094;4.408;2023-08-20T05:02:29;15.50;99.90
38398;DHT22;24179;52.094;4.408;2023-08-20T05:05:29;15.50;99.90
38398;DHT22;24179;52.094;4.408;2023-08-20T05:08:30;15.30;99.90
38398;DHT22;24179;52.094;4.408;2023-08-20T05:11:30;15.50;99.90
38398;DHT22;24179;52.094;4.408;2023-08-20T05:14:33;15.50;99.90
38398;DHT22;24179;52.094;4.408;2023-08-20T05:17:33;15.60;99.90
38398;DHT22;24179;52.094;4.408;2023-08-20T05:20:34;15.60;99.90
38398;DHT22;24179;52.094;4.408;2023-08-20T05:23:37;15.70;99.90
38398;DHT22;24179;52.094;4.408;2023-08-20T05:26:38;15.70;99.90
38398;DHT22;24179;52.094;4.408;2023-08-20T05:29:38;15.80;99.90
38398;DHT22;24179;52.094;4.408;2023-08-20T05:32:41;15.80;99.90
38398;DHT22;24179;52.094;4.408;2023-08-20T05:35:43;16.10;99.90
38398;DHT22;24179;52.094;4.408;2023-08-20T05:38:44;16.30;99.90
38398;DHT22;24179;52.094;4.408;2023-08-20T05:41:44;16.40;99.90
38398;DHT22;24179;52.094;4.408;2023-08-20T05:44:44;16.40;99.90
38398;DHT22;24179;52.094;4.408;2023-08-20T05:47:45;16.50;99.90
38398;DHT22;24179;52.094;4.408;2023-08-20T05:50:45;16.50;99.90
38398;DHT22;24179;52.094;4.408;2023-08-20T05:53:46;16.60;99.90
38398;DHT22;24179;52.094;4.408;2023-08-20T05:56:49;16.60;99.90
38398;DHT22;24179;52.094;4.408;2023-08-20T05:59:50;16.70;99.90
38398;DHT22;24179;52.094;4.408;2023-08-20T06:02:52;16.80;99.90
38398;DHT22;24179;52.094;4.408;2023-08-20T06:05:53;16.90;99.90
38398;DHT22;24179;52.094;4.408;2023-08-20T06:08:54;17.10;99.90
38398;DHT22;24179;52.094;4.408;2023-08-20T06:11:54;17.30;99.90
38398;DHT22;24179;52.094;4.408;2023-08-20T06:14:55;17.50;99.90
38398;DHT22;24179;52.094;4.408;2023-08-20T06:17:55;17.60;99.90
38398;DHT22;24179;52.094;4.408;2023-08-20T06:20:59;17.70;99.90
38398;DHT22;24179;52.094;4.408;2023-08-20T06:23:59;17.80;99.90
38398;DHT22;24179;52.094;4.408;2023-08-20T06:27:00;17.90;99.90
38398;DHT22;24179;52.094;4.408;2023-08-20T06:30:01;18.10;99.90
38398;DHT22;24179;52.094;4.408;2023-08-20T06:33:01;18.10;99.90
38398;DHT22;24179;52.094;4.408;2023-08-20T06:36:02;18.20;99.90
38398;DHT22;24179;52.094;4.408;2023-08-20T06:39:02;18.30;99.90
38398;DHT22;24179;52.094;4.408;2023-08-20T06:42:03;18.40;99.90
38398;DHT22;24179;52.094;4.408;2023-08-20T06:45:03;18.50;99.90
38398;DHT22;24179;52.094;4.408;2023-08-20T06:48:04;18.60;99.90
38398;DHT22;24179;52.094;4.408;2023-08-20T06:51:15;18.80;99.90
38398;DHT22;24179;52.094;4.408;2023-08-20T06:54:17;18.90;99.90
38398;DHT22;24179;52.094;4.408;2023-08-20T06:57:17;19.00;99.90
38398;DHT22;24179;52.094;4.408;2023-08-20T07:00:18;19.50;99.90
38398;DHT22;24179;52.094;4.408;2023-08-20T07:03:19;19.80;99.90
38398;DHT22;24179;52.094;4.408;2023-08-20T07:06:21;20.10;99.90
38398;DHT22;24179;52.094;4.408;2023-08-20T07:09:24;20.40;99.90
38398;DHT22;24179;52.094;4.408;2023-08-20T07:12:24;20.70;99.90
38398;DHT22;24179;52.094;4.408;2023-08-20T07:15:25;20.90;99.90
38398;DHT22;24179;52.094;4.408;2023-08-20T07:18:25;21.30;99.90
38398;DHT22;24179;52.094;4.408;2023-08-20T07:21:28;21.60;99.90
38398;DHT22;24179;52.094;4.408;2023-08-20T07:24:29;21.90;99.90
38398;DHT22;24179;52.094;4.408;2023-08-20T07:27:35;22.10;99.90
38398;DHT22;24179;52.094;4.408;2023-08-20T07:30:35;22.10;99.90
38398;DHT22;24179;52.094;4.408;2023-08-20T07:33:36;22.40;99.90
38398;DHT22;24179;52.094;4.408;2023-08-20T07:36:36;22.50;99.90
38398;DHT22;24179;52.094;4.408;2023-08-20T07:39:37;22.90;99.90
38398;DHT22;24179;52.094;4.408;2023-08-20T07:42:38;23.30;99.90
38398;DHT22;24179;52.094;4.408;2023-08-20T07:45:38;23.40;99.90
38398;DHT22;24179;52.094;4.408;2023-08-20T07:48:39;23.40;99.90
38398;DHT22;24179;52.094;4.408;2023-08-20T07:51:39;23.20;99.90
38398;DHT22;24179;52.094;4.408;2023-08-20T07:54:40;23.10;99.90
38398;DHT22;24179;52.094;4.408;2023-08-20T07:57:40;23.30;99.90
38398;DHT22;24179;52.094;4.408;2023-08-20T08:00:41;23.50;99.90
38398;DHT22;24179;52.094;4.408;2023-08-20T08:03:41;24.00;99.90
38398;DHT22;24179;52.094;4.408;2023-08-20T08:06:42;24.20;99.90
38398;DHT22;24179;52.094;4.408;2023-08-20T08:09:42;24.40;99.90
38398;DHT22;24179;52.094;4.408;2023-08-20T08:12:46;24.50;99.90
38398;DHT22;24179;52.094;4.408;2023-08-20T08:15:47;24.70;99.90
38398;DHT22;24179;52.094;4.408;2023-08-20T08:18:48;24.90;99.90
38398;DHT22;24179;52.094;4.408;2023-08-20T08:21:48;25.20;99.90
38398;DHT22;24179;52.094;4.408;2023-08-20T08:24:50;24.70;99.90
38398;DHT22;24179;52.094;4.408;2023-08-20T08:27:50;24.60;99.90
38398;DHT22;24179;52.094;4.408;2023-08-20T08:30:55;25.40;99.90
38398;DHT22;24179;52.094;4.408;2023-08-20T08:33:56;25.80;99.90
38398;DHT22;24179;52.094;4.408;2023-08-20T08:36:57;26.10;99.90
38398;DHT22;24179;52.094;4.408;2023-08-20T08:39:57;26.20;99.90
38398;DHT22;24179;52.094;4.408;2023-08-20T08:42:58;25.60;99.90
38398;DHT22;24179;52.094;4.408;2023-08-20T08:45:58;25.50;99.90
38398;DHT22;24179;52.094;4.408;2023-08-20T08:48:59;25.40;99.90
38398;DHT22;24179;52.094;4.408;2023-08-20T08:52:00;25.10;99.90
38398;DHT22;24179;52.094;4.408;2023-08-20T08:55:01;25.60;99.90
38398;DHT22;24179;52.094;4.408;2023-08-20T08:58:02;25.60;99.90
38398;DHT22;24179;52.094;4.408;2023-08-20T09:01:02;26.10;99.90
38398;DHT22;24179;52.094;4.408;2023-08-20T09:04:03;26.20;99.90
38398;DHT22;24179;52.094;4.408;2023-08-20T09:07:04;26.30;99.90
38398;DHT22;24179;52.094;4.408;2023-08-20T09:10:04;27.00;99.90
38398;DHT22;24179;52.094;4.408;2023-08-20T09:13:08;27.10;99.90
38398;DHT22;24179;52.094;4.408;2023-08-20T09:16:12;27.30;99.90
38398;DHT22;24179;52.094;4.408;2023-08-20T09:19:12;27.00;99.90
38398;DHT22;24179;52.094;4.408;2023-08-20T09:22:13;27.10;99.90
38398;DHT22;24179;52.094;4.408;2023-08-20T09:25:15;27.90;99.90
38398;DHT22;24179;52.094;4.408;2023-08-20T09:28:16;28.00;98.70
38398;DHT22;24179;52.094;4.408;2023-08-20T09:31:16;28.10;97.90
38398;DHT22;24179;52.094;4.408;2023-08-20T09:34:17;27.30;97.10
38398;DHT22;24179;52.094;4.408;2023-08-20T09:37:18;27.00;98.00
38398;DHT22;24179;52.094;4.408;2023-08-20T09:40:19;27.90;97.50
38398;DHT22;24179;52.094;4.408;2023-08-20T09:43:20;28.20;96.50
38398;DHT22;24179;52.094;4.408;2023-08-20T09:46:21;29.00;96.50
38398;DHT22;24179;52.094;4.408;2023-08-20T09:49:23;29.20;95.90
38398;DHT22;24179;52.094;4.408;2023-08-20T09:52:48;29.40;95.70
38398;DHT22;24179;52.094;4.408;2023-08-20T09:55:49;28.80;94.50
38398;DHT22;24179;52.094;4.408;2023-08-20T09:58:50;28.20;95.80
38398;DHT22;24179;52.094;4.408;2023-08-20T10:01:51;28.40;96.10
38398;DHT22;24179;52.094;4.408;2023-08-20T10:04:52;28.60;95.70
38398;DHT22;24179;52.094;4.408;2023-08-20T10:07:53;28.40;94.10
38398;DHT22;24179;52.094;4.408;2023-08-20T10:10:54;28.50;95.30
38398;DHT22;24179;52.094;4.408;2023-08-20T10:13:55;28.10;94.80
38398;DHT22;24179;52.094;4.408;2023-08-20T10:16:55;28.80;94.70
38398;DHT22;24179;52.094;4.408;2023-08-20T10:20:01;29.60;93.60
38398;DHT22;24179;52.094;4.408;2023-08-20T10:23:02;30.10;92.50
38398;DHT22;24179;52.094;4.408;2023-08-20T10:26:06;29.90;93.00
38398;DHT22;24179;52.094;4.408;2023-08-20T10:35:48;30.10;92.20
38398;DHT22;24179;52.094;4.408;2023-08-20T10:38:52;28.80;93.20
38398;DHT22;24179;52.094;4.408;2023-08-20T10:45:10;29.70;93.50
38398;DHT22;24179;52.094;4.408;2023-08-20T10:48:11;30.80;94.00
38398;DHT22;24179;52.094;4.408;2023-08-20T10:54:12;30.90;90.80
38398;DHT22;24179;52.094;4.408;2023-08-20T10:57:13;31.30;92.00
38398;DHT22;24179;52.094;4.408;2023-08-20T11:00:15;32.30;92.20
38398;DHT22;24179;52.094;4.408;2023-08-20T11:03:15;32.50;89.10
38398;DHT22;24179;52.094;4.408;2023-08-20T11:06:17;32.00;90.10
38398;DHT22;24179;52.094;4.408;2023-08-20T11:09:24;31.90;88.50
38398;DHT22;24179;52.094;4.408;2023-08-20T11:12:24;32.10;88.60
38398;DHT22;24179;52.094;4.408;2023-08-20T11:15:26;31.70;86.90
38398;DHT22;24179;52.094;4.408;2023-08-20T11:18:27;31.30;87.10
38398;DHT22;24179;52.094;4.408;2023-08-20T11:21:27;31.20;86.00
38398;DHT22;24179;52.094;4.408;2023-08-20T11:24:29;31.40;86.20
38398;DHT22;24179;52.094;4.408;2023-08-20T11:27:29;32.00;87.10
38398;DHT22;24179;52.094;4.408;2023-08-20T11:30:30;32.50;85.60
38398;DHT22;24179;52.094;4.408;2023-08-20T11:33:30;32.20;86.40
38398;DHT22;24179;52.094;4.408;2023-08-20T11:36:32;32.60;87.00
38398;DHT22;24179;52.094;4.408;2023-08-20T11:39:33;32.80;86.60
38398;DHT22;24179;52.094;4.408;2023-08-20T11:42:36;32.50;87.40
38398;DHT22;24179;52.094;4.408;2023-08-20T11:45:47;33.20;85.40
38398;DHT22;24179;52.094;4.408;2023-08-20T11:49:04;33.20;85.80
38398;DHT22;24179;52.094;4.408;2023-08-20T11:52:04;33.40;85.30
38398;DHT22;24179;52.094;4.408;2023-08-20T11:55:05;34.80;82.90
38398;DHT22;24179;52.094;4.408;2023-08-20T11:58:09;34.00;82.60
38398;DHT22;24179;52.094;4.408;2023-08-20T12:01:09;33.70;82.60
38398;DHT22;24179;52.094;4.408;2023-08-20T12:04:10;33.70;82.70
38398;DHT22;24179;52.094;4.408;2023-08-20T12:07:14;33.10;82.70
38398;DHT22;24179;52.094;4.408;2023-08-20T12:10:21;33.40;84.50
38398;DHT22;24179;52.094;4.408;2023-08-20T12:13:31;34.00;84.00
38398;DHT22;24179;52.094;4.408;2023-08-20T12:16:31;33.30;83.40
38398;DHT22;24179;52.094;4.408;2023-08-20T12:19:32;32.90;83.60
38398;DHT22;24179;52.094;4.408;2023-08-20T12:22:32;32.60;84.10
38398;DHT22;24179;52.094;4.408;2023-08-20T12:25:34;32.00;84.20
38398;DHT22;24179;52.094;4.408;2023-08-20T12:28:36;31.30;84.60
38398;DHT22;24179;52.094;4.408;2023-08-20T12:31:37;29.50;87.50
38398;DHT22;24179;52.094;4.408;2023-08-20T12:34:38;28.70;88.60
38398;DHT22;24179;52.094;4.408;2023-08-20T12:37:38;28.70;89.70
38398;DHT22;24179;52.094;4.408;2023-08-20T12:40:39;29.00;89.80
38398;DHT22;24179;52.094;4.408;2023-08-20T12:43:40;29.80;88.20
38398;DHT22;24179;52.094;4.408;2023-08-20T12:46:40;29.40;87.60
38398;DHT22;24179;52.094;4.408;2023-08-20T12:49:41;29.10;87.40
38398;DHT22;24179;52.094;4.408;2023-08-20T12:52:44;29.00;87.70
38398;DHT22;24179;52.094;4.408;2023-08-20T12:55:44;29.10;87.90
38398;DHT22;24179;52.094;4.408;2023-08-20T12:58:45;28.50;88.40
38398;DHT22;24179;52.094;4.408;2023-08-20T13:01:45;28.10;89.20
38398;DHT22;24179;52.094;4.408;2023-08-20T13:04:49;28.60;89.60
38398;DHT22;24179;52.094;4.408;2023-08-20T13:07:50;29.90;86.80
38398;DHT22;24179;52.094;4.408;2023-08-20T13:10:54;30.90;88.10
38398;DHT22;24179;52.094;4.408;2023-08-20T13:13:58;30.70;85.00
38398;DHT22;24179;52.094;4.408;2023-08-20T13:16:59;30.20;87.90
38398;DHT22;24179;52.094;4.408;2023-08-20T13:20:00;30.70;85.10
38398;DHT22;24179;52.094;4.408;2023-08-20T13:23:01;31.00;85.90
38398;DHT22;24179;52.094;4.408;2023-08-20T13:26:01;31.30;84.80
38398;DHT22;24179;52.094;4.408;2023-08-20T13:29:01;31.50;85.30
38398;DHT22;24179;52.094;4.408;2023-08-20T13:32:03;30.60;86.80
38398;DHT22;24179;52.094;4.408;2023-08-20T13:35:04;29.10;87.80
38398;DHT22;24179;52.094;4.408;2023-08-20T13:38:05;28.80;88.60
38398;DHT22;24179;52.094;4.408;2023-08-20T13:41:05;28.80;90.00
38398;DHT22;24179;52.094;4.408;2023-08-20T13:44:06;28.90;89.20
38398;DHT22;24179;52.094;4.408;2023-08-20T13:47:08;29.90;89.80
38398;DHT22;24179;52.094;4.408;2023-08-20T13:50:11;30.90;86.40
38398;DHT22;24179;52.094;4.408;2023-08-20T13:53:11;31.30;85.20
38398;DHT22;24179;52.094;4.408;2023-08-20T13:56:12;30.50;85.40
38398;DHT22;24179;52.094;4.408;2023-08-20T13:59:12;30.00;86.20
38398;DHT22;24179;52.094;4.408;2023-08-20T14:02:13;30.40;86.00
38398;DHT22;24179;52.094;4.408;2023-08-20T14:05:19;30.60;84.80
38398;DHT22;24179;52.094;4.408;2023-08-20T14:08:20;30.40;84.60
38398;DHT22;24179;52.094;4.408;2023-08-20T14:11:20;30.60;87.80
38398;DHT22;24179;52.094;4.408;2023-08-20T14:14:21;31.30;86.00
38398;DHT22;24179;52.094;4.408;2023-08-20T14:17:21;31.80;82.30
38398;DHT22;24179;52.094;4.408;2023-08-20T14:20:22;29.80;84.70
38398;DHT22;24179;52.094;4.408;2023-08-20T14:23:23;29.50;84.20
38398;DHT22;24179;52.094;4.408;2023-08-20T14:26:24;29.70;84.70
38398;DHT22;24179;52.094;4.408;2023-08-20T14:29:24;30.20;84.50
38398;DHT22;24179;52.094;4.408;2023-08-20T14:32:25;30.70;83.40
38398;DHT22;24179;52.094;4.408;2023-08-20T14:35:25;29.80;84.00
38398;DHT22;24179;52.094;4.408;2023-08-20T14:38:27;29.70;85.50
38398;DHT22;24179;52.094;4.408;2023-08-20T14:41:28;30.30;83.20
38398;DHT22;24179;52.094;4.408;2023-08-20T14:44:28;29.40;85.70
38398;DHT22;24179;52.094;4.408;2023-08-20T14:47:29;28.60;86.50
38398;DHT22;24179;52.094;4.408;2023-08-20T14:50:29;28.00;86.30
38398;DHT22;24179;52.094;4.408;2023-08-20T14:53:33;27.30;87.30
38398;DHT22;24179;52.094;4.408;2023-08-20T14:56:34;27.00;88.10
38398;DHT22;24179;52.094;4.408;2023-08-20T14:59:34;26.80;89.50
38398;DHT22;24179;52.094;4.408;2023-08-20T15:02:35;27.70;89.10
38398;DHT22;24179;52.094;4.408;2023-08-20T15:05:35;29.50;87.00
38398;DHT22;24179;52.094;4.408;2023-08-20T15:08:36;30.90;84.30
38398;DHT22;24179;52.094;4.408;2023-08-20T15:11:36;30.30;83.80
38398;DHT22;24179;52.094;4.408;2023-08-20T15:14:37;29.20;85.30
38398;DHT22;24179;52.094;4.408;2023-08-20T15:17:37;28.80;86.80
38398;DHT22;24179;52.094;4.408;2023-08-20T15:20:38;29.30;85.40
38398;DHT22;24179;52.094;4.408;2023-08-20T15:23:38;30.20;85.60
38398;DHT22;24179;52.094;4.408;2023-08-20T15:26:39;31.60;82.50
38398;DHT22;24179;52.094;4.408;2023-08-20T15:29:39;32.50;83.20
38398;DHT22;24179;52.094;4.408;2023-08-20T15:32:40;32.70;82.60
38398;DHT22;24179;52.094;4.408;2023-08-20T15:35:40;32.00;82.20
38398;DHT22;24179;52.094;4.408;2023-08-20T15:38:41;32.20;83.20
38398;DHT22;24179;52.094;4.408;2023-08-20T15:41:42;32.60;81.80
38398;DHT22;24179;52.094;4.408;2023-08-20T15:44:43;32.10;81.80
38398;DHT22;24179;52.094;4.408;2023-08-20T15:47:44;32.30;81.80
38398;DHT22;24179;52.094;4.408;2023-08-20T15:50:45;33.00;81.20
38398;DHT22;24179;52.094;4.408;2023-08-20T15:53:46;32.80;80.70
38398;DHT22;24179;52.094;4.408;2023-08-20T15:56:47;33.20;80.70
38398;DHT22;24179;52.094;4.408;2023-08-20T15:59:49;32.60;80.60
38398;DHT22;24179;52.094;4.408;2023-08-20T16:02:51;32.50;81.30
38398;DHT22;24179;52.094;4.408;2023-08-20T16:05:51;32.20;81.40
38398;DHT22;24179;52.094;4.408;2023-08-20T16:08:52;32.40;81.20
38398;DHT22;24179;52.094;4.408;2023-08-20T16:11:53;32.50;80.30
38398;DHT22;24179;52.094;4.408;2023-08-20T16:14:53;32.90;80.00
38398;DHT22;24179;52.094;4.408;2023-08-20T16:17:55;32.60;80.30
38398;DHT22;24179;52.094;4.408;2023-08-20T16:20:56;33.20;80.30
38398;DHT22;24179;52.094;4.408;2023-08-20T16:23:56;33.40;79.40
38398;DHT22;24179;52.094;4.408;2023-08-20T16:26:56;33.10;77.90
38398;DHT22;24179;52.094;4.408;2023-08-20T16:29:57;33.00;79.60
38398;DHT22;24179;52.094;4.408;2023-08-20T16:32:57;33.00;79.30
38398;DHT22;24179;52.094;4.408;2023-08-20T16:35:58;32.70;79.10
38398;DHT22;24179;52.094;4.408;2023-08-20T16:38:58;33.00;79.60
38398;DHT22;24179;52.094;4.408;2023-08-20T16:41:59;32.80;79.00
38398;DHT22;24179;52.094;4.408;2023-08-20T16:44:59;32.00;79.80
38398;DHT22;24179;52.094;4.408;2023-08-20T16:48:00;31.40;80.50
38398;DHT22;24179;52.094;4.408;2023-08-20T16:51:01;31.70;81.90
38398;DHT22;24179;52.094;4.408;2023-08-20T16:54:01;31.50;82.00
38398;DHT22;24179;52.094;4.408;2023-08-20T16:57:04;32.00;81.90
38398;DHT22;24179;52.094;4.408;2023-08-20T17:00:05;31.70;80.70
38398;DHT22;24179;52.094;4.408;2023-08-20T17:03:09;31.40;79.70
38398;DHT22;24179;52.094;4.408;2023-08-20T17:06:09;31.50;80.70
38398;DHT22;24179;52.094;4.408;2023-08-20T17:09:10;31.20;80.50
38398;DHT22;24179;52.094;4.408;2023-08-20T17:12:12;30.70;81.40
38398;DHT22;24179;52.094;4.408;2023-08-20T17:15:12;30.30;81.90
38398;DHT22;24179;52.094;4.408;2023-08-20T17:18:13;29.50;81.50
38398;DHT22;24179;52.094;4.408;2023-08-20T17:21:13;28.30;82.60
38398;DHT22;24179;52.094;4.408;2023-08-20T17:24:14;27.20;84.20
38398;DHT22;24179;52.094;4.408;2023-08-20T17:27:14;26.40;86.20
38398;DHT22;24179;52.094;4.408;2023-08-20T17:30:15;26.00;86.90
38398;DHT22;24179;52.094;4.408;2023-08-20T17:33:15;25.50;87.10
38398;DHT22;24179;52.094;4.408;2023-08-20T17:36:16;25.10;88.30
38398;DHT22;24179;52.094;4.408;2023-08-20T17:39:17;24.80;89.40
38398;DHT22;24179;52.094;4.408;2023-08-20T17:42:18;24.60;90.30
38398;DHT22;24179;52.094;4.408;2023-08-20T17:45:19;24.20;90.40
38398;DHT22;24179;52.094;4.408;2023-08-20T17:48:20;24.00;91.00
38398;DHT22;24179;52.094;4.408;2023-08-20T17:51:20;23.90;91.60
38398;DHT22;24179;52.094;4.408;2023-08-20T17:54:23;23.70;91.80
38398;DHT22;24179;52.094;4.408;2023-08-20T17:57:24;23.40;92.50
38398;DHT22;24179;52.094;4.408;2023-08-20T18:00:25;23.70;93.50
38398;DHT22;24179;52.094;4.408;2023-08-20T18:03:25;23.40;93.80
38398;DHT22;24179;52.094;4.408;2023-08-20T18:06:26;23.20;94.50
38398;DHT22;24179;52.094;4.408;2023-08-20T18:09:30;23.00;94.90
38398;DHT22;24179;52.094;4.408;2023-08-20T18:12:32;22.90;95.30
38398;DHT22;24179;52.094;4.408;2023-08-20T18:15:33;22.70;95.90
38398;DHT22;24179;52.094;4.408;2023-08-20T18:18:33;22.50;96.00
38398;DHT22;24179;52.094;4.408;2023-08-20T18:21:35;22.40;96.80
38398;DHT22;24179;52.094;4.408;2023-08-20T18:24:36;22.20;97.40
38398;DHT22;24179;52.094;4.408;2023-08-20T18:27:37;22.10;97.80
38398;DHT22;24179;52.094;4.408;2023-08-20T18:30:39;22.00;98.00
38398;DHT22;24179;52.094;4.408;2023-08-20T18:33:39;21.80;98.30
38398;DHT22;24179;52.094;4.408;2023-08-20T18:36:40;21.70;99.10
38398;DHT22;24179;52.094;4.408;2023-08-20T18:39:42;21.70;99.90
38398;DHT22;24179;52.094;4.408;2023-08-20T18:42:43;21.50;99.90
38398;DHT22;24179;52.094;4.408;2023-08-20T18:45:43;21.40;99.90
38398;DHT22;24179;52.094;4.408;2023-08-20T18:48:44;21.30;99.90
38398;DHT22;24179;52.094;4.408;2023-08-20T18:51:47;21.20;99.90
38398;DHT22;24179;52.094;4.408;2023-08-20T18:54:47;21.10;99.90
38398;DHT22;24179;52.094;4.408;2023-08-20T18:57:48;21.00;99.90
38398;DHT22;24179;52.094;4.408;2023-08-20T19:00:49;20.80;99.90
38398;DHT22;24179;52.094;4.408;2023-08-20T19:03:49;20.80;99.90
38398;DHT22;24179;52.094;4.408;2023-08-20T19:06:51;20.70;99.90
38398;DHT22;24179;52.094;4.408;2023-08-20T19:09:52;20.60;99.90
38398;DHT22;24179;52.094;4.408;2023-08-20T19:12:52;20.50;99.90
38398;DHT22;24179;52.094;4.408;2023-08-20T19:15:53;20.40;99.90
38398;DHT22;24179;52.094;4.408;2023-08-20T19:18:54;20.40;99.90
38398;DHT22;24179;52.094;4.408;2023-08-20T19:21:55;20.20;99.90
38398;DHT22;24179;52.094;4.408;2023-08-20T19:24:55;20.10;99.90